weather.gov     
National Weather Service

Terminal Aerodrome Forecast
NWS Homepage
This page is being discontinued on March 12, 2014.
The same data is available at this site. Please update your bookmarks.
Thank you, and we apologize for the inconvenience.
Please send an email to SR-SRH.Webmaster@noaa.gov with any concerns.


Current Version
Previous Version:    01  02  03  04  05  06  07  08  09  10  11  12  13  14  15  16  17  18  19  20  21  22  23  24  25  26  27  28  29  30  
   31  32  33  34  35  36  37  
[Printable]
935
FTUS43 KGRB 191700
TAFRHI
TAF
KRHI 191735Z 1918/2018 16014G22KT P6SM SCT035 BKN080
     FM200000 17009KT P6SM BKN035 OVC070 WS011/18040KT
      TEMPO 2000/2003 -RA
     FM200300 20008KT 6SM -RA BR BKN020 OVC050 WS011/20040KT
      TEMPO 2006/2010 2SM -RA BR OVC012
     FM201000 22004KT 2SM BR BKN008 OVC012
     FM201400 22006KT 4SM BR SCT008 OVC015=


U.S. Dept. of Commerce
NOAA National Weather Service
1325 East West Highway
Silver Spring, MD 20910
E-mail: w-nws.webmaster@noaa.gov
Page last modified: May 16, 2007
NATIONAL WEATHER SERVICE: for Safety, for Work, for Fun - FOR LIFE